Aviation Digital Data Service (ADDS)

Output produced by METARs form (1501 UTC 11 February 2016)
found at http://www.aviationweather.gov/adds/metars/
 
KBFD 111453Z AUTO 28016G21KT 1 1/2SM -SN FEW022 BKN026 OVC034 M13/M17 A2987 RMK AO2 PK WND 31028/1432 VIS 1/2V3 SLP155 P0000 60000 T11281172 51026
KBFD 111444Z AUTO 30013G22KT 1 1/4SM -SN BKN024 BKN029 OVC036 M13/M17 A2987 RMK AO2 PK WND 31028/1432 P0000 T11331172
KBFD 111401Z AUTO 29013G20KT 1/2SM SN BKN020 OVC025 M13/M17 A2984 RMK AO2 P0000 T11331167
KBFD 111353Z AUTO 29012G20KT 1SM -SN BKN024 BKN030 OVC042 M13/M17 A2984 RMK AO2 UPB31E33SNE31B33 SLP145 P0000 T11331172
KBFD 111339Z AUTO 30012G21KT 1 3/4SM -SN BKN026 OVC042 M13/M17 A2984 RMK AO2 UPB31E33SNE31B33 P0000 T11331172
KBFD 111330Z AUTO 30011G19KT 3SM -SN BKN026 OVC042 M13/M17 A2983 RMK AO2 P0000 T11331172
KBFD 111314Z AUTO 29011KT 1SM -SN BKN022 BKN027 OVC042 M13/M17 A2983 RMK AO2 P0000 T11331167
KBFD 111302Z AUTO 28012G19KT 3/4SM -SN FEW021 BKN028 OVC043 M13/M17 A2982 RMK AO2 P0000 T11331167
KBFD 111253Z AUTO 28010KT 1 1/4SM -SN FEW024 BKN032 OVC043 M13/M17 A2982 RMK AO2 SLP138 P0000 T11331172
KBFD 111241Z AUTO 29012KT 1 3/4SM -SN FEW018 BKN031 OVC049 M13/M17 A2982 RMK AO2 P0000 T11331172
KBFD 111232Z AUTO 28010G17KT 2SM -SN BKN016 BKN027 OVC040 M13/M17 A2981 RMK AO2 P0000 T11331172
KBFD 111224Z AUTO 30012G17KT 1SM -SN BKN010 BKN020 OVC026 M13/M17 A2981 RMK AO2 P0000 T11331167
KBFD 111153Z AUTO 28009KT 1/2SM SN VV008 M13/M16 A2979 RMK AO2 SLP126 P0001 60001 70004 T11331161 11122 21133 53012
KBFD 111141Z AUTO 27010KT 3/4SM -SN VV009 M13/M17 A2978 RMK AO2 P0000 T11331167
KBFD 111115Z AUTO 28010G16KT 3/4SM -SN VV014 M13/M17 A2978 RMK AO2 P0000 T11331167
KBFD 111100Z AUTO 27008KT 1SM -SN VV015 M13/M17 A2977 RMK AO2 P0000 T11331167
KBFD 111053Z AUTO 27009KT 3/4SM -SN VV013 M13/M17 A2977 RMK AO2 SLP118 P0000 T11331167
KBFD 111042Z AUTO 27011G16KT 1SM -SN VV014 M13/M17 A2977 RMK AO2 P0000 T11331167
KBFD 111037Z AUTO 27010G16KT 3/4SM -SN VV016 M13/M17 A2977 RMK AO2 P0000 T11331167
KBFD 111025Z AUTO 27009G19KT 1SM -SN OVC022 M13/M17 A2976 RMK AO2 P0000 T11331167
KBFD 111016Z AUTO 27009G18KT 2 1/2SM -SN OVC028 M13/M17 A2976 RMK AO2 P0000 T11331172
KBFD 111013Z AUTO 26008G19KT 3SM -SN OVC030 M13/M17 A2975 RMK AO2 P0000 T11331172
KBFD 110953Z AUTO 27009G16KT 5SM -SN OVC026 M13/M18 A2975 RMK AO2 UPB15E17SNB04E15B17E18B38 SLP110 P0000 T11331178
KBFD 110910Z AUTO 27014G21KT 4SM -SN BKN018 BKN025 M13/M18 A2974 RMK AO2 SNB04 P0000 T11331178
KBFD 110853Z AUTO 28012G18KT 240V300 10SM FEW022 M13/M18 A2974 RMK AO2 SNE0757 SLP105 P0000 60000 T11331178 53002
KBFD 110753Z AUTO 29010G18KT 4SM -SN FEW023 FEW027 OVC035 M13/M17 A2974 RMK AO2 SLP105 P0000 T11281167
KBFD 110744Z AUTO 29011G20KT 3SM -SN FEW024 OVC033 M12/M17 A2974 RMK AO2 P0000 T11221167
KBFD 110733Z AUTO 29012G21KT 5SM -SN BKN023 BKN028 M12/M16 A2973 RMK AO2 P0000 T11221161
KBFD 110726Z AUTO 28011G15KT 2 1/2SM -SN SCT012 BKN019 OVC024 M12/M15 A2973 RMK AO2 P0000 T11221150
KBFD 110707Z AUTO 28005KT 1 1/4SM -SN BKN013 OVC020 M12/M15 A2973 RMK AO2 P0000 T11221150
KBFD 110700Z AUTO 28007KT 3/4SM -SN VV013 M12/M15 A2973 RMK AO2 P0000 T11221150
KBFD 110653Z AUTO 28006KT 1SM -SN VV017 M12/M15 A2973 RMK AO2 SLP099 P0000 T11221150
KBFD 110615Z AUTO 28006KT 1 1/2SM -SN OVC028 M13/M16 A2973 RMK AO2 P0000 T11281156
KBFD 110605Z AUTO 28006KT 2 1/2SM -SN OVC034 M13/M16 A2973 RMK AO2 P0000 T11281156
KBFD 110553Z AUTO 28006KT 3SM -SN OVC038 M13/M16 A2973 RMK AO2 SNB0454 SLP102 P0000 60000 T11281156 11100 21133 50000
KBFD 110545Z AUTO 28006KT 3SM -SN OVC036 M13/M16 A2973 RMK AO2 SNB0454 P0000 T11281156
KBFD 110453Z AUTO 26003KT 7SM OVC025 M13/M16 A2973 RMK AO2 SNE0358B17E39 SLP103 P0000 T11331156 410391133
KBFD 110353Z AUTO 28006KT 8SM -SN FEW014 OVC021 M12/M16 A2974 RMK AO2 SNE0258B48 SLP103 P0000 T11221156
KBFD 110253Z AUTO 28008KT 6SM -SN FEW015 OVC023 M12/M16 A2973 RMK AO2 SLP101 P0000 60000 T11171156 52007
KBFD 110153Z AUTO 29014G20KT 7SM -SN SCT020 OVC028 M11/M16 A2973 RMK AO2 SNB29 SLP097 P0000 T11111156
KBFD 110053Z AUTO 29011G17KT 9SM FEW020 OVC029 M11/M16 A2972 RMK AO2 UPB49E52SNE34B38E49 SLP095 P0000 T11111156
KBFD 110036Z AUTO 28012G19KT 7SM SCT028 SCT035 OVC042 M11/M16 A2972 RMK AO2 SNE34 P0000 T11061156
KBFD 110027Z AUTO 29010G23KT 5SM -SN FEW022 BKN028 OVC035 M11/M15 A2972 RMK AO2 P0000 T11061150
KBFD 110018Z AUTO 30013G21KT 2 1/2SM -SN FEW021 BKN028 OVC035 M11/M14 A2972 RMK AO2 P0000 T11061144
KBFD 110011Z AUTO 30015G21KT 3SM -SN BKN024 OVC033 M10/M14 A2971 RMK AO2 P0000 T11001144
KBFD 102353Z AUTO 29010G19KT 7SM -SN FEW025 BKN030 OVC095 M10/M15 A2971 RMK AO2 UPB47E51SNE47B51 SLP091 P0000 60000 T11001150 11067 21100 51026
KBFD 102342Z AUTO 29013G21KT 6SM -SN SCT025 BKN030 OVC095 M10/M14 A2971 RMK AO2 P0000 T11001144
KBFD 102253Z AUTO 30010G20KT 3SM -SN FEW020 BKN025 OVC065 M09/M13 A2969 RMK AO2 SLP081 P0000 T10891133
KBFD 102245Z AUTO 29012G19KT 2SM -SN BKN020 BKN025 OVC065 M09/M13 A2968 RMK AO2 VIS 1 3/4V3 P0000 T10891128
KBFD 102233Z AUTO 28012G18KT 3SM -SN SCT018 BKN024 OVC065 M08/M12 A2968 RMK AO2 P0000 T10831122
KBFD 102200Z AUTO 28012KT 1 3/4SM -SN BKN024 BKN036 OVC045 M08/M12 A2966 RMK AO2 P0000 T10831122
KBFD 102153Z AUTO 28013KT 3SM -SN BKN020 BKN034 OVC043 M08/M12 A2966 RMK AO2 SLP070 P0000 T10831122
KBFD 102150Z AUTO 28009KT 3SM -SN BKN020 BKN034 OVC043 M08/M12 A2965 RMK AO2 P0000
KBFD 102145Z AUTO 28009G21KT 240V300 1SM -SN BKN015 BKN021 OVC034 M08/M12 A2965 RMK AO2 P0000 T10831117
KBFD 102142Z AUTO 29014G21KT 1/2SM SN BKN012 OVC019 M08/M12 A2965 RMK AO2 P0000 T10831117
KBFD 102134Z AUTO 28011G19KT 1/4SM +SN BKN008 BKN015 OVC020 M08/M11 A2965 RMK AO2 P0000 T10781106
KBFD 102128Z AUTO 28012G17KT 1/2SM SN BKN012 OVC020 M08/M11 A2965 RMK AO2 P0000 T10781111
KBFD 102053Z AUTO 24010G15KT 1 1/4SM -SN BKN016 BKN021 OVC028 M07/M11 A2963 RMK AO2 SLP060 P0000 60000 T10721111 53009
KBFD 102002Z AUTO 24009KT 200V270 1 1/4SM -SN BKN016 BKN021 OVC033 M07/M11 A2962 RMK AO2 P0000 T10721106
KBFD 101953Z AUTO 25007G15KT 3/4SM -SN BKN016 OVC021 M07/M11 A2962 RMK AO2 SLP056 P0000 T10721106
KBFD 101944Z AUTO 24009G15KT 1/2SM SN OVC016 M07/M10 A2962 RMK AO2 P0000 T10721100
KBFD 101933Z AUTO 26009KT 1 1/4SM -SN OVC017 M07/M11 A2961 RMK AO2 P0000 T10671106
KBFD 101918Z AUTO 3/4SM -SN SCT013 BKN019 OVC032 M07/M10 A2961 RMK AO2 P0000 T10671100
KBFD 101853Z AUTO 25007G14KT 220V300 1SM -SN BKN018 OVC029 M07/M11 A2960 RMK AO2 SLP050 P0000 T10671106
KBFD 101843Z AUTO 25008G18KT 220V290 3/4SM -SN SCT018 BKN023 OVC032 M07/M10 A2960
KBFD 101837Z AUTO 25009KT 210V290 1 3/4SM -SN FEW018 SCT026 OVC030 M07/M11 A2960 RMK AO2 P0000 T10671106
KBFD 101830Z AUTO 25008G19KT 3SM -SN OVC033 M07/M11 A2960 RMK AO2 P0000 T10671111
KBFD 101811Z AUTO 27011G15KT 1SM -SN FEW018 OVC031 M07/M11 A2960 RMK AO2 P0000 T10671106
KBFD 101753Z AUTO 27008KT 1 1/2SM -SN SCT016 BKN021 OVC030 M07/M10 A2960 RMK AO2 SLP049 P0000 60003 T10671100 11061 21067 50002
KBFD 101722Z AUTO 25010G16KT 220V290 1 1/2SM -SN FEW017 OVC026 M06/M10 A2960 RMK AO2 P0000 T10611100
KBFD 101653Z AUTO 28009G19KT 4SM -SN BKN027 OVC041 M06/M11 A2960 RMK AO2 SLP048 P0000 T10611106
KBFD 101608Z AUTO 27011G19KT 3SM -SN SCT017 BKN028 OVC036 M06/M11 A2960 RMK AO2 P0000 T10611106
KBFD 101553Z AUTO 27009G15KT 2 1/2SM -SN BKN015 BKN022 OVC030 M06/M10 A2960 RMK AO2 SLP048 P0000 T10611100
KBFD 101516Z AUTO 26009G16KT 220V290 1SM -SN BKN015 OVC021 M06/M09 A2960 RMK AO2 P0000 T10611089
KBFD 101453Z AUTO 27012G19KT 1/2SM SN VV013 M06/M09 A2959 RMK AO2 SLP045 P0001 60003 T10611094 52011
KBFD 101406Z AUTO 27008G16KT 1/2SM SN FZFG VV010 M06/M08 A2958 RMK AO2 P0000 T10611083
KBFD 101402Z AUTO 28011G16KT 1/4SM +SN VV009 M06/M09 A2958 RMK AO2 P0000 T10611089
KBFD 101353Z AUTO 27005KT 1/4SM +SN FZFG VV011 M06/M08 A2958 RMK AO2 SLP040 P0001 T10611083
KBFD 101344Z AUTO 26006KT 1/4SM SN FZFG VV014 M06/M08 A2958 RMK AO2 P0000 T10611083
KBFD 101323Z AUTO 28009KT 3/4SM -SN BR OVC021 M06/M08 A2958 RMK AO2 P0000 T10611083
KBFD 101308Z AUTO 26009KT 210V300 1SM -SN BR VV020 M06/M08 A2957 RMK AO2 P0000 T10611083
KBFD 101253Z AUTO 26008KT 3/4SM -SN BR FEW012 OVC017 M06/M08 A2957 RMK AO2 SLP036 P0001 T10611083
KBFD 101233Z AUTO 27010G16KT 1/2SM -SN FZFG VV016 M06/M08 A2957 RMK AO2 P0000 T10611083
KBFD 101217Z AUTO 27008KT 1 1/4SM -SN OVC024 M06/M09 A2957 RMK AO2 P0000 T10611089
KBFD 101210Z AUTO 27008G18KT 1 1/2SM -SN FEW013 FEW020 OVC030 M06/M09 A2956 RMK AO2 P0000 T10611089
KBFD 101202Z AUTO 27009G17KT 2SM -SN FEW013 SCT020 OVC032 M06/M09 A2956 RMK AO2 P0000 T10611089
KBFD 101153Z AUTO 27010G16KT 2SM -SN SCT013 OVC022 M06/M09 A2956 RMK AO2 SLP032 P0001 60003 70005 T10611089 11044 21061 53010
KBFD 101141Z AUTO 26008KT 1 1/4SM -SN FEW010 BKN015 OVC021 M06/M09 A2955 RMK AO2 P0001 T10611089
KBFD 101129Z AUTO 26007G16KT 230V290 1 1/4SM -SN BR BKN013 OVC019 M06/M08 A2955 RMK AO2 P0001 T10611083
KBFD 101053Z AUTO 26007KT 240V300 3/4SM -SN BR VV012 M06/M08 A2954
KBFD 101048Z AUTO 25006KT 3/4SM -SN BR VV013 M06/M08 A2954 RMK AO2 P0001
KBFD 101016Z AUTO 24006KT 1SM -SN BR BKN014 OVC021 M06/M08 A2953 RMK AO2 P0000 T10561078
KBFD 101004Z AUTO 26006KT 1 1/4SM -SN BR FEW009 BKN016 OVC024 M06/M08 A2953 RMK AO2 P0000 T10561078
KBFD 100953Z AUTO 26005KT 1SM -SN BR FEW011 BKN018 OVC023 M06/M08 A2953 RMK AO2 SLP020 P0001 T10561078
KBFD 100917Z AUTO 24005KT 1 1/4SM -SN BR FEW009 BKN020 OVC027 M06/M08 A2952 RMK AO2 P0000 T10561078
KBFD 100909Z AUTO 25007KT 210V280 2SM -SN BR SCT014 BKN020 OVC027 M06/M08 A2952 RMK AO2 P0000 T10561078
KBFD 100901Z AUTO 25006KT 2SM -SN BR FEW009 BKN013 OVC027 M06/M08 A2951 RMK AO2 P0000 T10561078
KBFD 100853Z AUTO VRB04KT 1SM -SN BR BKN013 OVC019 M06/M07 A2951 RMK AO2 SNB0758 SLP014 P0000 60000 T10561072 56000
KBFD 100831Z AUTO 28005KT 1SM -SN BR BKN013 OVC024 M06/M08 A2951 RMK AO2 SNB0758 P0000 T10561078
KBFD 100813Z AUTO 27008G17KT 1 3/4SM -SN BKN017 OVC022 M05/M08 A2951 RMK AO2 SNB0758 P0000 T10501083
KBFD 100753Z AUTO 26008G20KT 9SM OVC018 M05/M09 A2952 RMK AO2 SNE49 SLP014 P0000 T10501089
KBFD 100653Z AUTO 27009KT 5SM -SN BKN018 OVC024 M04/M08 A2951 RMK AO2 SLP013 P0000 T10441078
KBFD 100553Z AUTO 28010KT 5SM -SN SCT018 BKN025 BKN035 M04/M08 A2951 RMK AO2 UPB14E32SNE09B46 SLP014 P0000 60002 T10441078 11017 21044 55002
KBFD 100510Z AUTO 27011KT 8SM FEW010 BKN019 OVC025 M04/M07 A2951 RMK AO2 SNE09 P0000 T10391072
KBFD 100503Z AUTO 27006G16KT 3SM -SN FEW008 BKN012 OVC028 M04/M07 A2951 RMK AO2 P0000 T10391067
KBFD 100501Z AUTO 26007G16KT 1 3/4SM -SN SCT010 BKN015 OVC028 M04/M07 A2951 RMK AO2 P0000 T10391067
KBFD 100453Z AUTO 27009G15KT 3/4SM -SN BR BKN010 OVC015 M04/M06 A2951 RMK AO2 SLP012 P0002 T10391061 400061039
KBFD 100443Z AUTO 27009KT 1 3/4SM -SN OVC011 M03/M06 A2951 RMK AO2 P0001 T10331061
KBFD 100424Z AUTO VRB06KT 7SM -SN BKN013 BKN018 OVC024 M03/M06 A2951 RMK AO2 P0000 T10331061
KBFD 100353Z AUTO 27007KT 220V300 5SM -SN SCT018 BKN025 OVC033 M03/M07 A2951 RMK AO2 SNB17 SLP012 P0000 T10331072